createdAt,value
2018-11-26T00:00:47.213Z,36.30
2018-11-26T00:03:17.029Z,43.78
2018-11-26T00:05:45.833Z,39.78
2018-11-26T00:08:15.274Z,41.68
2018-11-26T00:17:21.889Z,34.67
2018-11-26T00:19:53.132Z,32.20
2018-11-26T00:22:21.946Z,51.90
2018-11-26T00:24:50.777Z,42.08
2018-11-26T00:27:19.624Z,38.67
2018-11-26T00:29:48.455Z,40.78
2018-11-26T00:32:17.286Z,33.08
2018-11-26T00:34:46.118Z,46.25
2018-11-26T00:37:14.890Z,31.35
2018-11-26T00:39:43.682Z,46.88
2018-11-26T00:42:12.445Z,34.95
2018-11-26T00:44:41.309Z,42.25
2018-11-26T00:47:10.132Z,42.60
2018-11-26T00:49:39.374Z,35.33
2018-11-26T00:52:08.244Z,34.33
2018-11-26T00:54:37.097Z,47.88
2018-11-26T00:57:06.039Z,37.75
2018-11-26T00:59:34.806Z,38.88
2018-11-26T01:02:04.091Z,29.48
2018-11-26T01:04:32.862Z,50.20
2018-11-26T01:07:01.738Z,38.90
2018-11-26T01:09:30.777Z,41.53
2018-11-26T01:11:59.583Z,32.23
2018-11-26T01:14:28.377Z,39.33
2018-11-26T01:17:06.571Z,41.35
2018-11-26T01:19:35.405Z,42.45
2018-11-26T01:22:04.216Z,42.95
2018-11-26T01:24:33.068Z,46.37
2018-11-26T01:27:01.841Z,54.48
2018-11-26T01:29:30.630Z,91.35
2018-11-26T01:31:59.445Z,82.05
2018-11-26T01:34:28.283Z,121.50
2018-11-26T01:36:57.082Z,67.50
2018-11-26T01:39:25.869Z,66.67
2018-11-26T01:41:54.827Z,89.37
2018-11-26T01:44:23.646Z,90.10
2018-11-26T01:46:52.385Z,95.05
2018-11-26T01:49:21.204Z,84.58
2018-11-26T01:51:49.975Z,86.95
2018-11-26T01:54:18.791Z,88.75
2018-11-26T01:56:47.605Z,80.65
2018-11-26T01:59:16.484Z,79.12
2018-11-26T02:01:52.671Z,58.00
2018-11-26T02:04:26.482Z,74.07
2018-11-26T02:06:55.326Z,77.45
2018-11-26T02:09:24.656Z,73.72
2018-11-26T02:11:53.439Z,65.30
2018-11-26T02:14:22.259Z,102.80
2018-11-26T02:16:51.079Z,111.17
2018-11-26T02:19:19.948Z,116.22
2018-11-26T02:21:48.750Z,54.18
2018-11-26T02:24:17.543Z,68.37
2018-11-26T02:26:46.398Z,86.22
2018-11-26T02:29:15.188Z,63.50
2018-11-26T02:31:43.959Z,95.47
2018-11-26T02:34:12.808Z,43.52
2018-11-26T02:36:41.616Z,95.35
2018-11-26T02:39:10.434Z,72.87
2018-11-26T02:41:39.224Z,67.75
2018-11-26T02:44:08.003Z,75.57
2018-11-26T02:46:36.856Z,69.07
2018-11-26T02:49:05.746Z,75.97
2018-11-26T02:51:34.582Z,64.05
2018-11-26T02:54:03.451Z,39.48
2018-11-26T02:56:32.183Z,79.42
2018-11-26T02:59:01.070Z,55.63
2018-11-26T03:01:30.318Z,66.22
2018-11-26T03:03:59.125Z,53.00
2018-11-26T03:06:27.959Z,49.10
2018-11-26T03:08:56.753Z,69.15
2018-11-26T03:11:25.641Z,68.92
2018-11-26T03:13:54.695Z,63.70
2018-11-26T03:16:23.534Z,52.93
2018-11-26T03:18:52.666Z,58.87
2018-11-26T03:21:21.517Z,45.03
2018-11-26T03:23:50.251Z,32.95
2018-11-26T03:26:19.047Z,55.73
2018-11-26T03:28:47.813Z,68.37
2018-11-26T03:31:16.640Z,51.28
2018-11-26T03:33:45.431Z,54.40
2018-11-26T03:36:14.233Z,54.63
2018-11-26T03:38:51.377Z,52.10
2018-11-26T03:41:20.421Z,66.85
2018-11-26T03:43:49.282Z,56.18
2018-11-26T03:46:18.156Z,68.62
2018-11-26T03:48:46.955Z,65.28
2018-11-26T03:51:15.821Z,40.03
2018-11-26T03:53:44.597Z,44.67
2018-11-26T03:56:13.396Z,54.05
2018-11-26T03:58:42.149Z,40.10
2018-11-26T04:01:10.903Z,30.52
2018-11-26T04:03:39.701Z,44.53
2018-11-26T04:06:08.488Z,30.25
2018-11-26T04:08:37.345Z,34.45
2018-11-26T04:11:06.639Z,27.65
2018-11-26T04:13:35.404Z,44.95
2018-11-26T04:16:04.271Z,37.30
2018-11-26T04:18:33.049Z,31.60
2018-11-26T04:21:01.856Z,36.33
2018-11-26T04:23:30.656Z,34.20
2018-11-26T04:25:59.536Z,29.82
2018-11-26T04:28:28.438Z,33.23
2018-11-26T04:30:57.286Z,33.35
2018-11-26T04:33:26.514Z,28.50
2018-11-26T04:35:55.318Z,62.95
2018-11-26T04:38:24.149Z,32.45
2018-11-26T04:40:53.000Z,29.85
2018-11-26T04:43:21.735Z,23.05
2018-11-26T04:45:50.545Z,37.08
2018-11-26T04:48:19.359Z,26.37
2018-11-26T04:50:48.223Z,26.35
2018-11-26T04:53:17.049Z,29.48
2018-11-26T04:55:45.915Z,28.25
2018-11-26T04:58:14.790Z,29.72
2018-11-26T05:00:43.678Z,27.75
2018-11-26T05:03:12.552Z,32.45
2018-11-26T05:05:41.374Z,27.25
2018-11-26T05:08:10.215Z,31.27
2018-11-26T05:10:39.293Z,35.52
2018-11-26T05:13:08.623Z,33.53
2018-11-26T05:15:37.417Z,38.75
2018-11-26T05:18:08.518Z,29.95
2018-11-26T05:20:37.432Z,33.73
2018-11-26T05:23:06.263Z,31.55
2018-11-26T05:25:35.058Z,30.25
2018-11-26T05:28:03.878Z,30.57
2018-11-26T05:30:32.637Z,27.15
2018-11-26T05:33:01.413Z,28.32
2018-11-26T05:35:30.190Z,29.80
2018-11-26T05:37:58.943Z,39.33
2018-11-26T05:40:27.729Z,24.05
2018-11-26T05:42:56.559Z,20.97
2018-11-26T05:45:25.416Z,32.23
2018-11-26T05:47:54.205Z,33.73
2018-11-26T05:50:22.958Z,26.68
2018-11-26T05:52:51.596Z,27.62
2018-11-26T05:55:21.289Z,30.77
2018-11-26T05:57:49.053Z,30.15
2018-11-26T06:00:24.804Z,38.17
2018-11-26T06:02:53.641Z,32.93
2018-11-26T06:05:22.820Z,43.68
2018-11-26T06:07:51.592Z,45.52
2018-11-26T06:10:20.395Z,30.02
2018-11-26T06:12:49.253Z,33.50
2018-11-26T06:15:18.604Z,33.20
2018-11-26T06:17:47.536Z,35.60
2018-11-26T06:20:16.619Z,26.25
2018-11-26T06:22:46.429Z,25.10
2018-11-26T06:25:22.672Z,24.87
2018-11-26T06:27:51.524Z,24.80
2018-11-26T06:30:20.526Z,23.83
2018-11-26T06:32:49.387Z,32.35
2018-11-26T06:35:21.064Z,27.02
2018-11-26T06:37:49.906Z,24.65
2018-11-26T06:40:18.743Z,23.95
2018-11-26T06:42:47.854Z,28.05
2018-11-26T06:45:18.807Z,25.60
2018-11-26T06:47:47.612Z,24.12
2018-11-26T06:50:17.409Z,28.02
2018-11-26T06:52:46.325Z,26.82
2018-11-26T06:55:16.351Z,27.62
2018-11-26T06:57:45.212Z,25.97
2018-11-26T07:00:16.331Z,23.50
2018-11-26T07:02:45.211Z,23.57
2018-11-26T07:05:19.094Z,27.00
2018-11-26T07:07:48.002Z,27.10
2018-11-26T07:10:17.405Z,21.90
2018-11-26T07:12:46.374Z,23.25
2018-11-26T07:15:17.723Z,21.55
2018-11-26T07:17:46.495Z,21.48
2018-11-26T07:20:16.365Z,24.80
2018-11-26T07:22:45.291Z,29.45
2018-11-26T07:25:15.048Z,39.98
2018-11-26T07:27:45.885Z,23.25
2018-11-26T07:30:16.799Z,29.77
2018-11-26T07:32:45.738Z,23.95
2018-11-26T07:35:15.091Z,27.50
2018-11-26T07:37:43.973Z,29.77
2018-11-26T07:40:13.775Z,32.28
2018-11-26T07:42:45.251Z,31.95
2018-11-26T07:45:14.561Z,30.55
2018-11-26T07:47:43.348Z,29.15
2018-11-26T07:50:13.522Z,25.00
2018-11-26T07:52:42.543Z,33.20
2018-11-26T07:55:13.655Z,33.00
2018-11-26T07:57:42.521Z,32.58
2018-11-26T08:00:15.041Z,36.77
2018-11-26T08:02:44.060Z,37.13
2018-11-26T08:05:13.828Z,28.27
2018-11-26T08:07:42.703Z,45.63
2018-11-26T08:10:14.402Z,37.53
2018-11-26T08:12:43.362Z,44.95
2018-11-26T08:15:18.276Z,34.03
2018-11-26T08:17:47.137Z,42.17
2018-11-26T08:20:16.029Z,41.48
2018-11-26T08:22:44.899Z,95.32
2018-11-26T08:25:14.798Z,78.57
2018-11-26T08:27:44.419Z,53.48
2018-11-26T08:30:15.191Z,60.30
2018-11-26T08:32:44.847Z,44.75
2018-11-26T08:35:14.637Z,57.38
2018-11-26T08:37:48.545Z,51.53
2018-11-26T08:40:25.440Z,45.55
2018-11-26T08:44:09.336Z,45.15
2018-11-26T08:46:36.903Z,32.38
2018-11-26T08:49:12.368Z,49.05
2018-11-26T08:51:41.161Z,43.23
2018-11-26T08:54:10.015Z,33.75
2018-11-26T08:56:40.413Z,22.35
2018-11-26T08:59:09.956Z,34.18
2018-11-26T09:01:45.313Z,28.75
2018-11-26T09:04:20.671Z,22.73
2018-11-26T09:06:49.575Z,28.77
2018-11-26T09:09:19.055Z,27.90
2018-11-26T09:11:48.490Z,26.17
2018-11-26T09:14:18.823Z,25.88
2018-11-26T09:16:48.303Z,28.20
2018-11-26T09:19:17.903Z,31.57
2018-11-26T09:21:47.137Z,39.85
2018-11-26T09:24:17.307Z,39.42
2018-11-26T09:26:47.137Z,36.95
2018-11-26T09:29:18.690Z,45.15
2018-11-26T09:31:48.555Z,55.85
2018-11-26T09:34:17.557Z,65.83
2018-11-26T09:36:47.376Z,88.17
2018-11-26T09:39:16.745Z,56.63
2018-11-26T09:41:46.328Z,80.53
2018-11-26T09:44:15.981Z,98.03
2018-11-26T09:46:45.076Z,84.35
2018-11-26T09:49:14.504Z,65.20
2018-11-26T09:51:43.928Z,62.25
2018-11-26T09:54:14.700Z,40.20
2018-11-26T09:56:44.583Z,66.20
2018-11-26T09:59:13.549Z,88.82
2018-11-26T10:01:44.311Z,66.82
2018-11-26T10:04:14.539Z,50.58
2018-11-26T10:06:44.512Z,62.70
2018-11-26T10:09:14.881Z,57.20
2018-11-26T10:11:46.843Z,36.98
2018-11-26T10:14:15.854Z,43.10
2018-11-26T10:16:45.439Z,60.08
2018-11-26T10:19:14.539Z,29.57
2018-11-26T10:21:43.356Z,30.17
2018-11-26T10:24:12.711Z,32.93
2018-11-26T10:26:42.038Z,32.08
2018-11-26T10:29:12.205Z,38.63
2018-11-26T10:31:41.636Z,30.95
2018-11-26T10:34:10.492Z,36.05
2018-11-26T10:36:39.787Z,27.82
2018-11-26T10:39:10.113Z,28.27
2018-11-26T10:41:39.015Z,27.67
2018-11-26T10:44:08.938Z,35.85
2018-11-26T10:46:39.417Z,23.18
2018-11-26T10:49:08.445Z,21.70
2018-11-26T10:51:37.381Z,23.25
2018-11-26T10:54:06.771Z,21.73
2018-11-26T10:56:36.145Z,27.70
2018-11-26T10:59:06.287Z,25.10
2018-11-26T11:01:38.204Z,25.32
2018-11-26T11:04:07.493Z,23.77
2018-11-26T11:06:38.715Z,23.47
2018-11-26T11:09:09.532Z,21.23
2018-11-26T11:11:39.537Z,16.17
2018-11-26T11:14:09.967Z,17.70
2018-11-26T11:16:38.768Z,18.70
2018-11-26T11:19:09.071Z,17.90
2018-11-26T11:21:38.842Z,15.15
2018-11-26T11:24:07.945Z,18.12
2018-11-26T11:26:37.247Z,17.48
2018-11-26T11:29:07.234Z,16.82
2018-11-26T11:31:38.570Z,15.95
2018-11-26T11:34:07.910Z,14.15
2018-11-26T11:36:36.999Z,14.93
2018-11-26T11:39:09.405Z,12.93
2018-11-26T11:41:38.835Z,17.62
2018-11-26T11:44:08.468Z,10.55
2018-11-26T11:46:37.273Z,18.17
2018-11-26T11:49:07.267Z,9.05
2018-11-26T11:51:36.084Z,12.47
2018-11-26T11:54:05.485Z,12.50
2018-11-26T11:56:35.290Z,12.13
2018-11-26T11:59:04.799Z,14.93
2018-11-26T12:01:33.645Z,15.58
2018-11-26T12:04:03.074Z,14.00
2018-11-26T12:06:31.968Z,17.07
2018-11-26T12:09:00.901Z,13.00
2018-11-26T12:11:29.681Z,12.53
2018-11-26T12:13:58.492Z,13.55
2018-11-26T12:16:27.371Z,13.90
2018-11-26T12:21:24.679Z,12.23
2018-11-26T12:23:53.333Z,8.58
2018-11-26T12:26:21.970Z,9.95
2018-11-26T12:28:50.611Z,8.58
2018-11-26T12:31:19.239Z,9.03
2018-11-26T12:33:47.838Z,11.08
2018-11-26T12:36:16.517Z,7.87
2018-11-26T12:38:45.134Z,7.08
2018-11-26T12:41:13.745Z,7.35
2018-11-26T12:43:42.401Z,8.20
2018-11-26T12:46:11.029Z,9.80
2018-11-26T12:48:39.667Z,9.88
2018-11-26T12:51:08.360Z,7.95
2018-11-26T12:53:37.653Z,7.15
2018-11-26T12:56:06.514Z,6.30
2018-11-26T12:58:35.623Z,7.80
2018-11-26T13:01:04.271Z,11.93
2018-11-26T13:03:32.905Z,5.40
2018-11-26T13:06:01.537Z,7.25
2018-11-26T13:08:30.199Z,7.90
2018-11-26T13:10:58.842Z,6.45
2018-11-26T13:13:27.540Z,8.75
2018-11-26T13:15:56.146Z,7.62
2018-11-26T13:18:24.832Z,11.08
2018-11-26T13:20:53.438Z,8.13
2018-11-26T13:23:22.022Z,7.17
2018-11-26T13:25:50.668Z,7.33
2018-11-26T13:28:19.294Z,5.17
2018-11-26T13:30:49.691Z,6.35
2018-11-26T13:33:19.211Z,6.75
2018-11-26T13:35:48.707Z,8.93
2018-11-26T13:38:17.381Z,6.50
2018-11-26T13:40:46.221Z,8.00
2018-11-26T13:43:19.257Z,6.60
2018-11-26T13:45:49.586Z,6.08
2018-11-26T13:48:19.148Z,5.92
2018-11-26T13:50:49.727Z,7.70
2018-11-26T13:53:18.391Z,7.08
2018-11-26T13:55:46.994Z,7.12
2018-11-26T13:58:15.569Z,8.13
2018-11-26T14:00:44.177Z,9.23
2018-11-26T14:03:12.751Z,8.70
2018-11-26T14:05:41.358Z,7.15
2018-11-26T14:08:09.932Z,7.70
2018-11-26T14:10:38.474Z,10.50
2018-11-26T14:13:10.797Z,8.55
2018-11-26T14:15:39.920Z,8.58
2018-11-26T14:18:08.502Z,8.88
2018-11-26T14:20:37.143Z,12.07
2018-11-26T14:23:06.122Z,10.75
2018-11-26T14:25:35.078Z,12.00
2018-11-26T14:28:04.346Z,13.72
2018-11-26T14:30:33.019Z,11.83
2018-11-26T14:33:01.870Z,12.95
2018-11-26T14:35:30.542Z,13.15
2018-11-26T14:38:01.625Z,18.55
2018-11-26T14:40:33.636Z,13.48
2018-11-26T14:43:02.340Z,13.85
2018-11-26T14:45:30.976Z,13.43
2018-11-26T14:47:59.669Z,15.88
2018-11-26T14:50:28.615Z,14.95
2018-11-26T14:52:57.778Z,10.93
2018-11-26T14:55:27.704Z,13.65
2018-11-26T14:57:56.383Z,13.22
2018-11-26T15:00:25.022Z,10.23
2018-11-26T15:02:53.688Z,11.08
2018-11-26T15:05:22.395Z,10.08
2018-11-26T15:07:51.061Z,9.48
2018-11-26T15:10:20.908Z,10.05
2018-11-26T15:12:49.838Z,7.75
2018-11-26T15:15:19.996Z,13.20
2018-11-26T15:17:49.267Z,10.45
2018-11-26T15:20:20.856Z,11.83
2018-11-26T15:22:50.271Z,9.60
2018-11-26T15:25:21.970Z,8.83
2018-11-26T15:27:53.837Z,9.40
2018-11-26T15:30:24.583Z,7.58
2018-11-26T15:32:54.468Z,7.67
2018-11-26T15:35:25.502Z,7.35
2018-11-26T15:37:54.432Z,7.65
2018-11-26T15:40:23.397Z,7.78
2018-11-26T15:42:52.246Z,9.55
2018-11-26T15:45:22.315Z,10.23
2018-11-26T15:47:51.953Z,7.12
2018-11-26T15:50:21.191Z,8.50
2018-11-26T15:52:50.038Z,7.55
2018-11-26T15:55:19.845Z,9.40
2018-11-26T15:57:48.893Z,10.23
2018-11-26T16:00:19.737Z,8.35
2018-11-26T16:02:49.330Z,10.23
2018-11-26T16:05:20.712Z,11.40
2018-11-26T16:07:50.987Z,10.60
2018-11-26T16:10:25.971Z,10.08
2018-11-26T16:12:57.562Z,10.50
2018-11-26T16:15:30.835Z,8.98
2018-11-26T16:18:01.546Z,10.08
2018-11-26T16:20:30.366Z,9.93
2018-11-26T16:22:59.990Z,10.78
2018-11-26T16:25:28.834Z,13.75
2018-11-26T16:27:57.589Z,15.63
2018-11-26T16:30:26.347Z,14.45
2018-11-26T16:32:57.242Z,11.22
2018-11-26T16:35:28.480Z,14.43
2018-11-26T16:37:57.292Z,12.37
2018-11-26T16:40:26.094Z,14.87
2018-11-26T16:42:54.919Z,13.35
2018-11-26T16:45:24.816Z,13.40
2018-11-26T16:47:54.430Z,12.50
2018-11-26T16:50:24.594Z,10.28
2018-11-26T16:52:53.376Z,10.63
2018-11-26T16:55:22.210Z,13.72
2018-11-26T16:57:51.062Z,13.28
2018-11-26T17:00:23.141Z,16.15
2018-11-26T17:02:54.038Z,18.92
2018-11-26T17:05:26.466Z,15.00
2018-11-26T17:07:55.362Z,18.65
2018-11-26T17:10:24.313Z,14.47
2018-11-26T17:12:53.068Z,15.18
2018-11-26T17:15:21.920Z,14.28
2018-11-26T17:17:50.757Z,14.35
2018-11-26T17:20:19.573Z,14.45
2018-11-26T17:22:48.459Z,14.35
2018-11-26T17:25:17.785Z,12.80
2018-11-26T17:27:46.914Z,11.40
2018-11-26T17:30:18.201Z,17.45
2018-11-26T17:32:48.074Z,21.05
2018-11-26T17:35:17.404Z,16.20
2018-11-26T17:37:46.264Z,13.05
2018-11-26T17:40:17.135Z,14.40
2018-11-26T17:42:46.084Z,16.17
2018-11-26T17:45:15.471Z,17.17
2018-11-26T17:47:46.596Z,15.18
2018-11-26T17:50:21.717Z,13.85
2018-11-26T17:52:50.591Z,12.75
2018-11-26T17:55:19.383Z,13.78
2018-11-26T17:57:48.230Z,13.43
2018-11-26T18:00:20.206Z,14.05
2018-11-26T18:02:48.991Z,19.27
2018-11-26T18:05:22.986Z,15.85
2018-11-26T18:07:57.586Z,17.82
2018-11-26T18:10:26.410Z,15.30
2018-11-26T18:12:55.223Z,13.28
2018-11-26T18:15:24.089Z,12.80
2018-11-26T18:17:53.072Z,13.50
2018-11-26T18:20:22.528Z,16.95
2018-11-26T18:22:52.631Z,14.70
2018-11-26T18:25:22.607Z,17.23
2018-11-26T18:27:55.977Z,11.40
2018-11-26T18:30:26.790Z,16.30
2018-11-26T18:32:55.723Z,12.30
2018-11-26T18:35:24.501Z,11.90
2018-11-26T18:37:53.382Z,11.57
2018-11-26T18:40:23.192Z,9.58
2018-11-26T18:42:52.739Z,10.58
2018-11-26T18:45:22.302Z,11.93
2018-11-26T18:47:51.652Z,14.70
2018-11-26T18:50:21.719Z,11.85
2018-11-26T18:52:51.499Z,11.08
2018-11-26T18:55:20.937Z,10.72
2018-11-26T18:57:50.825Z,10.78
2018-11-26T19:00:23.097Z,15.80
2018-11-26T19:02:52.890Z,15.68
2018-11-26T19:05:23.007Z,17.48
2018-11-26T19:07:52.881Z,15.58
2018-11-26T19:10:27.639Z,14.35
2018-11-26T19:13:14.642Z,10.72
2018-11-26T19:15:45.278Z,16.50
2018-11-26T19:18:18.822Z,12.10
2018-11-26T19:20:48.002Z,11.25
2018-11-26T19:23:16.787Z,15.50
2018-11-26T19:25:46.126Z,15.93
2018-11-26T19:28:20.201Z,10.40
2018-11-26T19:30:44.226Z,14.07
2018-11-26T19:33:13.169Z,12.23
2018-11-26T19:35:41.911Z,11.25
2018-11-26T19:38:11.156Z,13.45
2018-11-26T19:40:40.749Z,11.20
2018-11-26T19:43:09.762Z,16.25
2018-11-26T19:45:38.850Z,13.93
2018-11-26T19:48:08.621Z,17.35
2018-11-26T19:50:37.670Z,14.13
2018-11-26T19:53:09.417Z,14.05
2018-11-26T19:55:38.309Z,12.78
2018-11-26T19:58:08.245Z,20.20
2018-11-26T20:00:37.170Z,13.28
2018-11-26T20:03:13.740Z,20.55
2018-11-26T20:05:53.378Z,18.32
2018-11-26T20:08:22.486Z,15.30
2018-11-26T20:10:51.258Z,17.55
2018-11-26T20:13:20.103Z,24.52
2018-11-26T20:15:49.257Z,17.65
2018-11-26T20:18:18.013Z,22.60
2018-11-26T20:20:46.945Z,22.20
2018-11-26T20:23:15.853Z,19.57
2018-11-26T20:25:46.202Z,25.05
2018-11-26T20:28:13.653Z,31.62
2018-11-26T20:30:43.520Z,18.40
2018-11-26T20:33:12.354Z,22.37
2018-11-26T20:35:47.203Z,28.38
2018-11-26T20:38:16.700Z,31.68
2018-11-26T20:40:46.190Z,23.38
2018-11-26T20:43:15.537Z,20.43
2018-11-26T20:45:46.973Z,26.57
2018-11-26T20:48:15.811Z,27.98
2018-11-26T20:50:46.615Z,25.40
2018-11-26T20:53:15.773Z,24.07
2018-11-26T20:55:44.806Z,20.70
2018-11-26T20:58:13.676Z,27.07
2018-11-26T21:00:42.937Z,21.05
2018-11-26T21:03:12.036Z,23.00
2018-11-26T21:05:41.625Z,24.05
2018-11-26T21:08:10.906Z,22.82
2018-11-26T21:10:39.818Z,19.17
2018-11-26T21:13:09.375Z,21.55
2018-11-26T21:15:38.700Z,20.55
2018-11-26T21:18:11.298Z,22.00
2018-11-26T21:20:44.738Z,19.90
2018-11-26T21:23:24.015Z,25.30
2018-11-26T21:25:53.101Z,21.65
2018-11-26T21:28:21.943Z,26.15
2018-11-26T21:30:52.291Z,26.10
2018-11-26T21:33:19.778Z,25.35
2018-11-26T21:35:48.706Z,19.55
2018-11-26T21:38:17.638Z,26.80
2018-11-26T21:40:46.472Z,26.55
2018-11-26T21:43:15.357Z,21.40
2018-11-26T21:45:49.754Z,21.42
2018-11-26T21:48:18.626Z,22.35
2018-11-26T21:50:47.820Z,19.95
2018-11-26T21:53:16.692Z,17.17
2018-11-26T21:55:46.002Z,22.55
2018-11-26T21:58:14.900Z,26.15
2018-11-26T22:00:43.964Z,26.90
2018-11-26T22:03:13.685Z,22.42
2018-11-26T22:05:44.026Z,24.45
2018-11-26T22:08:13.608Z,29.67
2018-11-26T22:10:44.669Z,30.10
2018-11-26T22:13:15.642Z,22.42
2018-11-26T22:15:44.543Z,22.37
2018-11-26T22:18:13.347Z,16.73
2018-11-26T22:20:42.195Z,22.77
2018-11-26T22:23:11.085Z,19.23
2018-11-26T22:25:39.954Z,20.50
2018-11-26T22:28:10.162Z,22.22
2018-11-26T22:30:39.666Z,21.97
2018-11-26T22:33:09.131Z,17.60
2018-11-26T22:35:37.735Z,22.13
2018-11-26T22:38:06.951Z,15.38
2018-11-26T22:40:36.203Z,13.15
2018-11-26T22:43:05.233Z,16.23
2018-11-26T22:45:34.676Z,16.12
2018-11-26T22:48:07.026Z,13.75
2018-11-26T22:50:36.733Z,20.20
2018-11-26T22:53:06.378Z,19.70
2018-11-26T22:55:35.401Z,14.18
2018-11-26T22:58:04.281Z,14.15
2018-11-26T23:00:41.472Z,15.50
2018-11-26T23:03:11.292Z,14.95
2018-11-26T23:05:40.276Z,19.07
2018-11-26T23:08:09.234Z,20.12
2018-11-26T23:10:38.084Z,18.02
2018-11-26T23:13:07.793Z,15.30
2018-11-26T23:15:36.770Z,17.45
2018-11-26T23:18:08.364Z,15.65
2018-11-26T23:20:37.262Z,17.40
2018-11-26T23:23:06.800Z,17.65
2018-11-26T23:25:35.828Z,20.55
2018-11-26T23:28:04.897Z,15.08
2018-11-26T23:30:33.750Z,17.52
2018-11-26T23:33:03.652Z,20.12
2018-11-26T23:35:32.639Z,20.02
2018-11-26T23:38:01.658Z,21.12
2018-11-26T23:40:30.551Z,17.40
2018-11-26T23:42:59.421Z,22.35
2018-11-26T23:45:29.134Z,23.02
2018-11-26T23:47:58.046Z,21.02
2018-11-26T23:50:26.974Z,21.23
2018-11-26T23:52:55.816Z,24.70
2018-11-26T23:55:25.503Z,24.95
2018-11-26T23:57:54.304Z,26.87
